sensor_id;sensor_type;location;lat;lon;timestamp;temperature;humidity
5675;DHT22;2860;54.284;10.158;2022-12-07T00:00:01;0.30;99.90
5675;DHT22;2860;54.284;10.158;2022-12-07T00:02:26;0.20;99.90
5675;DHT22;2860;54.284;10.158;2022-12-07T00:04:52;0.20;99.90
5675;DHT22;2860;54.284;10.158;2022-12-07T00:07:18;0.20;99.90
5675;DHT22;2860;54.284;10.158;2022-12-07T00:09:43;0.10;99.90
5675;DHT22;2860;54.284;10.158;2022-12-07T00:12:09;0.10;99.90
5675;DHT22;2860;54.284;10.158;2022-12-07T00:14:34;0.10;99.90
5675;DHT22;2860;54.284;10.158;2022-12-07T00:17:00;0.00;99.90
5675;DHT22;2860;54.284;10.158;2022-12-07T00:19:26;0.00;99.90
5675;DHT22;2860;54.284;10.158;2022-12-07T00:21:51;0.00;99.90
5675;DHT22;2860;54.284;10.158;2022-12-07T00:24:17;-0.10;99.90
5675;DHT22;2860;54.284;10.158;2022-12-07T00:26:43;-0.10;99.90
5675;DHT22;2860;54.284;10.158;2022-12-07T00:29:18;-0.10;99.90
5675;DHT22;2860;54.284;10.158;2022-12-07T00:31:44;0.00;99.90
5675;DHT22;2860;54.284;10.158;2022-12-07T00:34:16;0.00;99.90
5675;DHT22;2860;54.284;10.158;2022-12-07T00:36:42;0.10;99.90
5675;DHT22;2860;54.284;10.158;2022-12-07T00:39:07;0.10;99.90
5675;DHT22;2860;54.284;10.158;2022-12-07T00:41:33;0.10;99.90
5675;DHT22;2860;54.284;10.158;2022-12-07T00:43:59;0.20;99.90
5675;DHT22;2860;54.284;10.158;2022-12-07T00:46:25;0.20;99.90
5675;DHT22;2860;54.284;10.158;2022-12-07T00:48:52;0.20;99.90
5675;DHT22;2860;54.284;10.158;2022-12-07T00:51:20;0.20;99.90
5675;DHT22;2860;54.284;10.158;2022-12-07T00:53:46;0.20;99.90
5675;DHT22;2860;54.284;10.158;2022-12-07T00:56:17;0.30;99.90
5675;DHT22;2860;54.284;10.158;2022-12-07T00:58:44;0.30;99.90
5675;DHT22;2860;54.284;10.158;2022-12-07T01:01:14;0.40;99.90
5675;DHT22;2860;54.284;10.158;2022-12-07T01:03:39;0.40;99.90
5675;DHT22;2860;54.284;10.158;2022-12-07T01:06:05;0.40;99.90
5675;DHT22;2860;54.284;10.158;2022-12-07T01:08:31;0.50;99.90
5675;DHT22;2860;54.284;10.158;2022-12-07T01:11:02;0.50;99.90
5675;DHT22;2860;54.284;10.158;2022-12-07T01:13:28;0.60;99.90
5675;DHT22;2860;54.284;10.158;2022-12-07T01:15:57;0.50;99.90
5675;DHT22;2860;54.284;10.158;2022-12-07T01:18:23;0.50;99.90
5675;DHT22;2860;54.284;10.158;2022-12-07T01:21:04;0.50;99.90
5675;DHT22;2860;54.284;10.158;2022-12-07T01:23:31;0.50;99.90
5675;DHT22;2860;54.284;10.158;2022-12-07T01:25:58;0.50;99.90
5675;DHT22;2860;54.284;10.158;2022-12-07T01:28:25;0.60;99.90
5675;DHT22;2860;54.284;10.158;2022-12-07T01:31:08;0.70;99.90
5675;DHT22;2860;54.284;10.158;2022-12-07T01:33:36;0.80;99.90
5675;DHT22;2860;54.284;10.158;2022-12-07T01:36:16;0.80;99.90
5675;DHT22;2860;54.284;10.158;2022-12-07T01:38:43;1.00;99.90
5675;DHT22;2860;54.284;10.158;2022-12-07T01:41:09;1.10;99.90
5675;DHT22;2860;54.284;10.158;2022-12-07T01:43:35;1.10;99.90
5675;DHT22;2860;54.284;10.158;2022-12-07T01:46:01;1.20;99.90
5675;DHT22;2860;54.284;10.158;2022-12-07T01:50:56;1.30;99.90
5675;DHT22;2860;54.284;10.158;2022-12-07T01:53:26;1.30;99.90
5675;DHT22;2860;54.284;10.158;2022-12-07T01:55:54;1.40;99.90
5675;DHT22;2860;54.284;10.158;2022-12-07T01:58:20;1.40;99.90
5675;DHT22;2860;54.284;10.158;2022-12-07T02:00:46;1.40;99.90
5675;DHT22;2860;54.284;10.158;2022-12-07T02:03:24;1.40;99.90
5675;DHT22;2860;54.284;10.158;2022-12-07T02:05:51;1.40;99.90
5675;DHT22;2860;54.284;10.158;2022-12-07T02:08:17;1.50;99.90
5675;DHT22;2860;54.284;10.158;2022-12-07T02:10:43;1.50;99.90
5675;DHT22;2860;54.284;10.158;2022-12-07T02:13:13;1.50;99.90
5675;DHT22;2860;54.284;10.158;2022-12-07T02:18:25;1.60;99.90
5675;DHT22;2860;54.284;10.158;2022-12-07T02:21:13;1.70;99.90
5675;DHT22;2860;54.284;10.158;2022-12-07T02:24:03;1.60;99.90
5675;DHT22;2860;54.284;10.158;2022-12-07T02:27:07;1.70;99.90
5675;DHT22;2860;54.284;10.158;2022-12-07T02:29:54;1.70;99.90
5675;DHT22;2860;54.284;10.158;2022-12-07T02:32:43;1.70;99.90
5675;DHT22;2860;54.284;10.158;2022-12-07T02:35:21;1.70;99.90
5675;DHT22;2860;54.284;10.158;2022-12-07T02:40:43;1.70;99.90
5675;DHT22;2860;54.284;10.158;2022-12-07T02:43:18;1.70;99.90
5675;DHT22;2860;54.284;10.158;2022-12-07T02:45:45;1.70;99.90
5675;DHT22;2860;54.284;10.158;2022-12-07T02:48:14;1.60;99.90
5675;DHT22;2860;54.284;10.158;2022-12-07T02:50:53;1.60;99.90
5675;DHT22;2860;54.284;10.158;2022-12-07T02:55:55;1.60;99.90
5675;DHT22;2860;54.284;10.158;2022-12-07T03:01:28;1.60;99.90
5675;DHT22;2860;54.284;10.158;2022-12-07T03:06:42;1.60;99.90
5675;DHT22;2860;54.284;10.158;2022-12-07T03:09:18;1.50;99.90
5675;DHT22;2860;54.284;10.158;2022-12-07T03:11:50;1.50;99.90
5675;DHT22;2860;54.284;10.158;2022-12-07T03:14:21;1.50;99.90
5675;DHT22;2860;54.284;10.158;2022-12-07T03:16:57;1.50;99.90
5675;DHT22;2860;54.284;10.158;2022-12-07T03:19:26;1.50;99.90
5675;DHT22;2860;54.284;10.158;2022-12-07T03:22:09;1.40;99.90
5675;DHT22;2860;54.284;10.158;2022-12-07T03:24:57;1.40;99.90
5675;DHT22;2860;54.284;10.158;2022-12-07T03:27:26;1.40;99.90
5675;DHT22;2860;54.284;10.158;2022-12-07T03:30:03;1.40;99.90
5675;DHT22;2860;54.284;10.158;2022-12-07T03:32:37;1.30;99.90
5675;DHT22;2860;54.284;10.158;2022-12-07T03:35:24;1.30;99.90
5675;DHT22;2860;54.284;10.158;2022-12-07T03:38:10;1.30;99.90
5675;DHT22;2860;54.284;10.158;2022-12-07T03:41:01;1.20;99.90
5675;DHT22;2860;54.284;10.158;2022-12-07T03:43:28;1.30;99.90
5675;DHT22;2860;54.284;10.158;2022-12-07T03:51:20;1.20;99.90
5675;DHT22;2860;54.284;10.158;2022-12-07T03:53:51;1.10;99.90
5675;DHT22;2860;54.284;10.158;2022-12-07T03:56:19;1.10;99.90
5675;DHT22;2860;54.284;10.158;2022-12-07T03:58:45;1.10;99.90
5675;DHT22;2860;54.284;10.158;2022-12-07T04:01:11;1.10;99.90
5675;DHT22;2860;54.284;10.158;2022-12-07T04:03:37;1.10;99.90
5675;DHT22;2860;54.284;10.158;2022-12-07T04:06:02;1.10;99.90
5675;DHT22;2860;54.284;10.158;2022-12-07T04:08:28;1.10;99.90
5675;DHT22;2860;54.284;10.158;2022-12-07T04:10:53;1.10;99.90
5675;DHT22;2860;54.284;10.158;2022-12-07T04:13:19;1.10;99.90
5675;DHT22;2860;54.284;10.158;2022-12-07T04:15:45;1.10;99.90
5675;DHT22;2860;54.284;10.158;2022-12-07T04:18:10;1.00;99.90
5675;DHT22;2860;54.284;10.158;2022-12-07T04:20:35;1.00;99.90
5675;DHT22;2860;54.284;10.158;2022-12-07T04:23:01;1.00;99.90
5675;DHT22;2860;54.284;10.158;2022-12-07T04:25:27;1.00;99.90
5675;DHT22;2860;54.284;10.158;2022-12-07T04:27:52;1.00;99.90
5675;DHT22;2860;54.284;10.158;2022-12-07T04:30:19;1.00;99.90
5675;DHT22;2860;54.284;10.158;2022-12-07T04:32:44;1.00;99.90
5675;DHT22;2860;54.284;10.158;2022-12-07T04:35:10;1.00;99.90
5675;DHT22;2860;54.284;10.158;2022-12-07T04:37:35;1.00;99.90
5675;DHT22;2860;54.284;10.158;2022-12-07T04:40:01;0.90;99.90
5675;DHT22;2860;54.284;10.158;2022-12-07T04:42:28;0.90;99.90
5675;DHT22;2860;54.284;10.158;2022-12-07T04:44:53;0.90;99.90
5675;DHT22;2860;54.284;10.158;2022-12-07T04:47:19;0.90;99.90
5675;DHT22;2860;54.284;10.158;2022-12-07T04:49:44;0.90;99.90
5675;DHT22;2860;54.284;10.158;2022-12-07T04:52:10;0.90;99.90
5675;DHT22;2860;54.284;10.158;2022-12-07T04:54:36;0.90;99.90
5675;DHT22;2860;54.284;10.158;2022-12-07T04:57:01;0.90;99.90
5675;DHT22;2860;54.284;10.158;2022-12-07T04:59:27;0.90;99.90
5675;DHT22;2860;54.284;10.158;2022-12-07T05:01:52;0.80;99.90
5675;DHT22;2860;54.284;10.158;2022-12-07T05:04:17;0.80;99.90
5675;DHT22;2860;54.284;10.158;2022-12-07T05:06:43;0.70;99.90
5675;DHT22;2860;54.284;10.158;2022-12-07T05:09:09;0.70;99.90
5675;DHT22;2860;54.284;10.158;2022-12-07T05:11:35;0.70;99.90
5675;DHT22;2860;54.284;10.158;2022-12-07T05:14:06;0.70;99.90
5675;DHT22;2860;54.284;10.158;2022-12-07T05:16:31;0.70;99.90
5675;DHT22;2860;54.284;10.158;2022-12-07T05:18:57;0.60;99.90
5675;DHT22;2860;54.284;10.158;2022-12-07T05:21:23;0.60;99.90
5675;DHT22;2860;54.284;10.158;2022-12-07T05:23:49;0.60;99.90
5675;DHT22;2860;54.284;10.158;2022-12-07T05:26:14;0.50;99.90
5675;DHT22;2860;54.284;10.158;2022-12-07T05:28:40;0.50;99.90
5675;DHT22;2860;54.284;10.158;2022-12-07T05:31:06;0.40;99.90
5675;DHT22;2860;54.284;10.158;2022-12-07T05:33:31;0.40;99.90
5675;DHT22;2860;54.284;10.158;2022-12-07T05:35:57;0.40;99.90
5675;DHT22;2860;54.284;10.158;2022-12-07T05:38:23;0.30;99.90
5675;DHT22;2860;54.284;10.158;2022-12-07T05:40:50;0.30;99.90
5675;DHT22;2860;54.284;10.158;2022-12-07T05:43:16;0.20;99.90
5675;DHT22;2860;54.284;10.158;2022-12-07T05:45:42;0.10;99.90
5675;DHT22;2860;54.284;10.158;2022-12-07T05:48:07;0.00;99.90
5675;DHT22;2860;54.284;10.158;2022-12-07T05:50:33;-0.10;99.90
5675;DHT22;2860;54.284;10.158;2022-12-07T05:52:58;-0.20;99.90
5675;DHT22;2860;54.284;10.158;2022-12-07T05:55:24;-0.20;99.90
5675;DHT22;2860;54.284;10.158;2022-12-07T05:57:49;-0.20;99.90
5675;DHT22;2860;54.284;10.158;2022-12-07T06:00:33;-0.20;99.90
5675;DHT22;2860;54.284;10.158;2022-12-07T06:02:58;-0.30;99.90
5675;DHT22;2860;54.284;10.158;2022-12-07T06:05:24;-0.30;99.90
5675;DHT22;2860;54.284;10.158;2022-12-07T06:07:49;-0.40;99.90
5675;DHT22;2860;54.284;10.158;2022-12-07T06:10:15;-0.50;99.90
5675;DHT22;2860;54.284;10.158;2022-12-07T06:12:41;-0.50;99.90
5675;DHT22;2860;54.284;10.158;2022-12-07T06:15:09;-0.50;99.90
5675;DHT22;2860;54.284;10.158;2022-12-07T06:17:35;-0.60;99.90
5675;DHT22;2860;54.284;10.158;2022-12-07T06:20:00;-0.60;99.90
5675;DHT22;2860;54.284;10.158;2022-12-07T06:22:26;-0.60;99.90
5675;DHT22;2860;54.284;10.158;2022-12-07T06:24:52;-0.70;99.90
5675;DHT22;2860;54.284;10.158;2022-12-07T06:27:17;-0.70;99.90
5675;DHT22;2860;54.284;10.158;2022-12-07T06:29:43;-0.70;99.90
5675;DHT22;2860;54.284;10.158;2022-12-07T06:32:08;-0.70;99.90
5675;DHT22;2860;54.284;10.158;2022-12-07T06:34:34;-0.80;99.90
5675;DHT22;2860;54.284;10.158;2022-12-07T06:37:00;-0.80;99.90
5675;DHT22;2860;54.284;10.158;2022-12-07T06:39:26;-0.80;99.90
5675;DHT22;2860;54.284;10.158;2022-12-07T06:41:52;-0.80;99.90
5675;DHT22;2860;54.284;10.158;2022-12-07T06:44:19;-0.80;99.90
5675;DHT22;2860;54.284;10.158;2022-12-07T06:46:46;-0.80;99.90
5675;DHT22;2860;54.284;10.158;2022-12-07T06:49:11;-0.80;99.90
5675;DHT22;2860;54.284;10.158;2022-12-07T06:51:37;-0.90;99.90
5675;DHT22;2860;54.284;10.158;2022-12-07T06:54:12;-0.90;99.90
5675;DHT22;2860;54.284;10.158;2022-12-07T06:56:38;-0.90;99.90
5675;DHT22;2860;54.284;10.158;2022-12-07T06:59:05;-0.90;99.90
5675;DHT22;2860;54.284;10.158;2022-12-07T07:01:32;-0.90;99.90
5675;DHT22;2860;54.284;10.158;2022-12-07T07:03:58;-0.90;99.90
5675;DHT22;2860;54.284;10.158;2022-12-07T07:06:23;-0.90;99.90
5675;DHT22;2860;54.284;10.158;2022-12-07T07:08:49;-1.00;99.90
5675;DHT22;2860;54.284;10.158;2022-12-07T07:11:15;-0.90;99.90
5675;DHT22;2860;54.284;10.158;2022-12-07T07:13:40;-0.90;99.90
5675;DHT22;2860;54.284;10.158;2022-12-07T07:16:06;-0.90;99.90
5675;DHT22;2860;54.284;10.158;2022-12-07T07:18:32;-0.90;99.90
5675;DHT22;2860;54.284;10.158;2022-12-07T07:20:58;-0.90;99.90
5675;DHT22;2860;54.284;10.158;2022-12-07T07:23:23;-1.00;99.90
5675;DHT22;2860;54.284;10.158;2022-12-07T07:25:49;-1.00;99.90
5675;DHT22;2860;54.284;10.158;2022-12-07T07:28:15;-1.00;99.90
5675;DHT22;2860;54.284;10.158;2022-12-07T07:30:41;-1.00;99.90
5675;DHT22;2860;54.284;10.158;2022-12-07T07:33:07;-0.90;99.90
5675;DHT22;2860;54.284;10.158;2022-12-07T07:35:33;-0.90;99.90
5675;DHT22;2860;54.284;10.158;2022-12-07T07:38:00;-0.90;99.90
5675;DHT22;2860;54.284;10.158;2022-12-07T07:40:26;-0.90;99.90
5675;DHT22;2860;54.284;10.158;2022-12-07T07:42:54;-0.90;99.90
5675;DHT22;2860;54.284;10.158;2022-12-07T07:45:22;-1.00;99.90
5675;DHT22;2860;54.284;10.158;2022-12-07T07:47:48;-1.00;99.90
5675;DHT22;2860;54.284;10.158;2022-12-07T07:50:14;-0.90;99.90
5675;DHT22;2860;54.284;10.158;2022-12-07T07:52:40;-0.90;99.90
5675;DHT22;2860;54.284;10.158;2022-12-07T07:55:06;-0.90;99.90
5675;DHT22;2860;54.284;10.158;2022-12-07T07:57:34;-0.90;99.90
5675;DHT22;2860;54.284;10.158;2022-12-07T07:59:59;-0.80;99.90
5675;DHT22;2860;54.284;10.158;2022-12-07T08:02:25;-0.70;99.90
5675;DHT22;2860;54.284;10.158;2022-12-07T08:04:50;-0.70;99.90
5675;DHT22;2860;54.284;10.158;2022-12-07T08:07:16;-0.70;99.90
5675;DHT22;2860;54.284;10.158;2022-12-07T08:09:42;-0.70;99.90
5675;DHT22;2860;54.284;10.158;2022-12-07T08:12:07;-0.60;99.90
5675;DHT22;2860;54.284;10.158;2022-12-07T08:14:33;-0.60;99.90
5675;DHT22;2860;54.284;10.158;2022-12-07T08:16:59;-0.50;99.90
5675;DHT22;2860;54.284;10.158;2022-12-07T08:19:25;-0.40;99.90
5675;DHT22;2860;54.284;10.158;2022-12-07T08:21:50;-0.40;99.90
5675;DHT22;2860;54.284;10.158;2022-12-07T08:24:16;-0.30;99.90
5675;DHT22;2860;54.284;10.158;2022-12-07T08:26:42;-0.30;99.90
5675;DHT22;2860;54.284;10.158;2022-12-07T08:29:07;-0.30;99.90
5675;DHT22;2860;54.284;10.158;2022-12-07T08:31:33;-0.20;99.90
5675;DHT22;2860;54.284;10.158;2022-12-07T08:33:58;-0.20;99.90
5675;DHT22;2860;54.284;10.158;2022-12-07T08:36:24;-0.20;99.90
5675;DHT22;2860;54.284;10.158;2022-12-07T08:38:50;-0.10;99.90
5675;DHT22;2860;54.284;10.158;2022-12-07T08:41:16;-0.10;99.90
5675;DHT22;2860;54.284;10.158;2022-12-07T08:43:42;0.00;99.90
5675;DHT22;2860;54.284;10.158;2022-12-07T08:46:44;0.00;99.90
5675;DHT22;2860;54.284;10.158;2022-12-07T08:49:16;0.00;99.90
5675;DHT22;2860;54.284;10.158;2022-12-07T08:51:43;0.10;99.90
5675;DHT22;2860;54.284;10.158;2022-12-07T08:54:11;0.10;99.90
5675;DHT22;2860;54.284;10.158;2022-12-07T08:56:38;0.20;99.90
5675;DHT22;2860;54.284;10.158;2022-12-07T08:59:05;0.20;99.90
5675;DHT22;2860;54.284;10.158;2022-12-07T09:01:31;0.30;99.90
5675;DHT22;2860;54.284;10.158;2022-12-07T09:03:58;0.30;99.90
5675;DHT22;2860;54.284;10.158;2022-12-07T09:06:23;0.30;99.90
5675;DHT22;2860;54.284;10.158;2022-12-07T09:08:53;0.40;99.90
5675;DHT22;2860;54.284;10.158;2022-12-07T09:11:21;0.40;99.90
5675;DHT22;2860;54.284;10.158;2022-12-07T09:13:47;0.40;99.90
5675;DHT22;2860;54.284;10.158;2022-12-07T09:16:13;0.40;99.90
5675;DHT22;2860;54.284;10.158;2022-12-07T09:18:38;0.40;99.90
5675;DHT22;2860;54.284;10.158;2022-12-07T09:21:04;0.40;99.90
5675;DHT22;2860;54.284;10.158;2022-12-07T09:23:30;0.50;99.90
5675;DHT22;2860;54.284;10.158;2022-12-07T09:25:59;0.50;99.90
5675;DHT22;2860;54.284;10.158;2022-12-07T09:28:26;0.50;99.90
5675;DHT22;2860;54.284;10.158;2022-12-07T09:30:51;0.50;99.90
5675;DHT22;2860;54.284;10.158;2022-12-07T09:33:17;0.50;99.90
5675;DHT22;2860;54.284;10.158;2022-12-07T09:35:47;0.60;99.90
5675;DHT22;2860;54.284;10.158;2022-12-07T09:38:14;0.60;99.90
5675;DHT22;2860;54.284;10.158;2022-12-07T09:40:40;0.60;99.90
5675;DHT22;2860;54.284;10.158;2022-12-07T09:43:17;0.60;99.90
5675;DHT22;2860;54.284;10.158;2022-12-07T09:45:44;0.60;99.90
5675;DHT22;2860;54.284;10.158;2022-12-07T09:48:18;0.70;99.90
5675;DHT22;2860;54.284;10.158;2022-12-07T09:50:46;0.70;99.90
5675;DHT22;2860;54.284;10.158;2022-12-07T09:53:24;0.80;99.90
5675;DHT22;2860;54.284;10.158;2022-12-07T09:55:51;0.80;99.90
5675;DHT22;2860;54.284;10.158;2022-12-07T09:58:23;0.90;99.90
5675;DHT22;2860;54.284;10.158;2022-12-07T10:00:53;0.80;99.90
5675;DHT22;2860;54.284;10.158;2022-12-07T10:03:22;0.80;99.90
5675;DHT22;2860;54.284;10.158;2022-12-07T10:05:50;0.90;99.90
5675;DHT22;2860;54.284;10.158;2022-12-07T10:08:16;0.90;99.90
5675;DHT22;2860;54.284;10.158;2022-12-07T10:10:43;0.90;99.90
5675;DHT22;2860;54.284;10.158;2022-12-07T10:13:13;0.90;99.90
5675;DHT22;2860;54.284;10.158;2022-12-07T10:18:19;0.90;99.90
5675;DHT22;2860;54.284;10.158;2022-12-07T10:20:48;1.00;99.90
5675;DHT22;2860;54.284;10.158;2022-12-07T10:23:17;1.00;99.90
5675;DHT22;2860;54.284;10.158;2022-12-07T10:25:44;1.00;99.90
5675;DHT22;2860;54.284;10.158;2022-12-07T10:30:55;1.00;99.90
5675;DHT22;2860;54.284;10.158;2022-12-07T10:33:46;1.00;99.90
5675;DHT22;2860;54.284;10.158;2022-12-07T10:36:18;1.10;99.90
5675;DHT22;2860;54.284;10.158;2022-12-07T10:39:11;1.10;99.90
5675;DHT22;2860;54.284;10.158;2022-12-07T10:44:27;1.20;99.90
5675;DHT22;2860;54.284;10.158;2022-12-07T10:47:18;1.20;99.90
5675;DHT22;2860;54.284;10.158;2022-12-07T10:50:07;1.30;99.90
5675;DHT22;2860;54.284;10.158;2022-12-07T11:01:18;1.40;99.90
5675;DHT22;2860;54.284;10.158;2022-12-07T11:09:37;1.50;99.90
5675;DHT22;2860;54.284;10.158;2022-12-07T11:17:55;1.60;99.90
5675;DHT22;2860;54.284;10.158;2022-12-07T11:20:35;1.70;99.90
5675;DHT22;2860;54.284;10.158;2022-12-07T11:23:42;1.70;99.90
5675;DHT22;2860;54.284;10.158;2022-12-07T11:26:32;1.70;99.90
5675;DHT22;2860;54.284;10.158;2022-12-07T11:37:11;1.80;99.90
5675;DHT22;2860;54.284;10.158;2022-12-07T11:39:49;1.90;99.90
5675;DHT22;2860;54.284;10.158;2022-12-07T11:42:21;1.90;99.90
5675;DHT22;2860;54.284;10.158;2022-12-07T11:44:55;1.90;99.90
5675;DHT22;2860;54.284;10.158;2022-12-07T11:47:35;1.90;99.90
5675;DHT22;2860;54.284;10.158;2022-12-07T11:50:28;1.90;99.90
5675;DHT22;2860;54.284;10.158;2022-12-07T11:52:58;1.90;99.90
5675;DHT22;2860;54.284;10.158;2022-12-07T12:02:03;2.10;99.90
5675;DHT22;2860;54.284;10.158;2022-12-07T12:06:38;2.10;99.90
5675;DHT22;2860;54.284;10.158;2022-12-07T12:12:02;2.20;99.90
5675;DHT22;2860;54.284;10.158;2022-12-07T12:14:40;2.20;99.90
5675;DHT22;2860;54.284;10.158;2022-12-07T12:20:29;2.30;99.90
5675;DHT22;2860;54.284;10.158;2022-12-07T12:23:35;2.30;99.90
5675;DHT22;2860;54.284;10.158;2022-12-07T12:26:03;2.20;99.90
5675;DHT22;2860;54.284;10.158;2022-12-07T12:28:49;2.30;99.90
5675;DHT22;2860;54.284;10.158;2022-12-07T12:31:38;2.30;99.90
5675;DHT22;2860;54.284;10.158;2022-12-07T12:34:38;2.30;99.90
5675;DHT22;2860;54.284;10.158;2022-12-07T12:42:53;2.20;99.90
5675;DHT22;2860;54.284;10.158;2022-12-07T12:45:25;2.20;99.90
5675;DHT22;2860;54.284;10.158;2022-12-07T12:47:59;2.10;99.90
5675;DHT22;2860;54.284;10.158;2022-12-07T12:50:38;2.00;99.90
5675;DHT22;2860;54.284;10.158;2022-12-07T12:53:24;2.00;99.90
5675;DHT22;2860;54.284;10.158;2022-12-07T12:59:18;1.90;99.90
5675;DHT22;2860;54.284;10.158;2022-12-07T13:01:48;1.90;99.90
5675;DHT22;2860;54.284;10.158;2022-12-07T13:04:28;1.80;99.90
5675;DHT22;2860;54.284;10.158;2022-12-07T13:06:56;1.80;99.90
5675;DHT22;2860;54.284;10.158;2022-12-07T13:09:27;1.70;99.90
5675;DHT22;2860;54.284;10.158;2022-12-07T13:12:02;1.70;99.90
5675;DHT22;2860;54.284;10.158;2022-12-07T13:14:41;1.60;99.90
5675;DHT22;2860;54.284;10.158;2022-12-07T13:20:07;1.50;99.90
5675;DHT22;2860;54.284;10.158;2022-12-07T13:25:19;1.40;99.90
5675;DHT22;2860;54.284;10.158;2022-12-07T13:27:59;1.40;99.90
5675;DHT22;2860;54.284;10.158;2022-12-07T13:30:26;1.30;99.90
5675;DHT22;2860;54.284;10.158;2022-12-07T13:32:57;1.30;99.90
5675;DHT22;2860;54.284;10.158;2022-12-07T13:35:30;1.30;99.90
5675;DHT22;2860;54.284;10.158;2022-12-07T13:37:56;1.30;99.90
5675;DHT22;2860;54.284;10.158;2022-12-07T13:40:23;1.20;99.90
5675;DHT22;2860;54.284;10.158;2022-12-07T13:43:00;1.20;99.90
5675;DHT22;2860;54.284;10.158;2022-12-07T13:45:32;1.20;99.90
5675;DHT22;2860;54.284;10.158;2022-12-07T13:48:30;1.20;99.90
5675;DHT22;2860;54.284;10.158;2022-12-07T13:50:58;1.10;99.90
5675;DHT22;2860;54.284;10.158;2022-12-07T13:53:24;1.10;99.90
5675;DHT22;2860;54.284;10.158;2022-12-07T13:55:53;1.10;99.90
5675;DHT22;2860;54.284;10.158;2022-12-07T13:58:19;1.00;99.90
5675;DHT22;2860;54.284;10.158;2022-12-07T14:00:44;0.90;99.90
5675;DHT22;2860;54.284;10.158;2022-12-07T14:05:40;0.80;99.90
5675;DHT22;2860;54.284;10.158;2022-12-07T14:10:53;0.60;99.90
5675;DHT22;2860;54.284;10.158;2022-12-07T14:13:30;0.60;99.90
5675;DHT22;2860;54.284;10.158;2022-12-07T14:15:57;0.60;99.90
5675;DHT22;2860;54.284;10.158;2022-12-07T14:18:39;0.60;99.90
5675;DHT22;2860;54.284;10.158;2022-12-07T14:21:29;0.60;99.90
5675;DHT22;2860;54.284;10.158;2022-12-07T14:24:19;0.60;99.90
5675;DHT22;2860;54.284;10.158;2022-12-07T14:26:47;0.60;99.90
5675;DHT22;2860;54.284;10.158;2022-12-07T14:29:32;0.70;99.90
5675;DHT22;2860;54.284;10.158;2022-12-07T14:32:13;0.60;99.90
5675;DHT22;2860;54.284;10.158;2022-12-07T14:34:56;0.60;99.90
5675;DHT22;2860;54.284;10.158;2022-12-07T14:37:23;0.50;99.90
5675;DHT22;2860;54.284;10.158;2022-12-07T14:39:48;0.50;99.90
5675;DHT22;2860;54.284;10.158;2022-12-07T14:42:14;0.50;99.90
5675;DHT22;2860;54.284;10.158;2022-12-07T14:44:39;0.50;99.90
5675;DHT22;2860;54.284;10.158;2022-12-07T14:47:05;0.50;99.90
5675;DHT22;2860;54.284;10.158;2022-12-07T14:49:30;0.50;99.90
5675;DHT22;2860;54.284;10.158;2022-12-07T14:51:56;0.40;99.90
5675;DHT22;2860;54.284;10.158;2022-12-07T14:54:23;0.40;99.90
5675;DHT22;2860;54.284;10.158;2022-12-07T14:56:51;0.30;99.90
5675;DHT22;2860;54.284;10.158;2022-12-07T14:59:17;0.30;99.90
5675;DHT22;2860;54.284;10.158;2022-12-07T15:01:44;0.30;99.90
5675;DHT22;2860;54.284;10.158;2022-12-07T15:04:09;0.30;99.90
5675;DHT22;2860;54.284;10.158;2022-12-07T15:06:35;0.30;99.90
5675;DHT22;2860;54.284;10.158;2022-12-07T15:09:00;0.30;99.90
5675;DHT22;2860;54.284;10.158;2022-12-07T15:11:26;0.20;99.90
5675;DHT22;2860;54.284;10.158;2022-12-07T15:13:52;0.20;99.90
5675;DHT22;2860;54.284;10.158;2022-12-07T15:16:33;0.10;99.90
5675;DHT22;2860;54.284;10.158;2022-12-07T15:18:59;0.10;99.90
5675;DHT22;2860;54.284;10.158;2022-12-07T15:21:24;0.00;99.90
5675;DHT22;2860;54.284;10.158;2022-12-07T15:23:50;-0.10;99.90
5675;DHT22;2860;54.284;10.158;2022-12-07T15:26:15;-0.10;99.90
5675;DHT22;2860;54.284;10.158;2022-12-07T15:28:41;-0.20;99.90
5675;DHT22;2860;54.284;10.158;2022-12-07T15:31:14;-0.20;99.90
5675;DHT22;2860;54.284;10.158;2022-12-07T15:33:40;-0.30;99.90
5675;DHT22;2860;54.284;10.158;2022-12-07T15:36:05;-0.30;99.90
5675;DHT22;2860;54.284;10.158;2022-12-07T15:38:31;-0.40;99.90
5675;DHT22;2860;54.284;10.158;2022-12-07T15:40:57;-0.40;99.90
5675;DHT22;2860;54.284;10.158;2022-12-07T15:43:22;-0.40;99.90
5675;DHT22;2860;54.284;10.158;2022-12-07T15:46:07;-0.50;99.90
5675;DHT22;2860;54.284;10.158;2022-12-07T15:48:32;-0.50;99.90
5675;DHT22;2860;54.284;10.158;2022-12-07T15:51:05;-0.50;99.90
5675;DHT22;2860;54.284;10.158;2022-12-07T15:53:31;-0.60;99.90
5675;DHT22;2860;54.284;10.158;2022-12-07T15:55:57;-0.60;99.90
5675;DHT22;2860;54.284;10.158;2022-12-07T15:58:22;-0.60;99.90
5675;DHT22;2860;54.284;10.158;2022-12-07T16:00:48;-0.60;99.90
5675;DHT22;2860;54.284;10.158;2022-12-07T16:03:14;-0.60;99.90
5675;DHT22;2860;54.284;10.158;2022-12-07T16:05:39;-0.70;99.90
5675;DHT22;2860;54.284;10.158;2022-12-07T16:08:05;-0.70;99.90
5675;DHT22;2860;54.284;10.158;2022-12-07T16:10:30;-0.70;99.90
5675;DHT22;2860;54.284;10.158;2022-12-07T16:12:56;-0.80;99.90
5675;DHT22;2860;54.284;10.158;2022-12-07T16:15:21;-0.80;99.90
5675;DHT22;2860;54.284;10.158;2022-12-07T16:17:49;-0.90;99.90
5675;DHT22;2860;54.284;10.158;2022-12-07T16:20:15;-0.90;99.90
5675;DHT22;2860;54.284;10.158;2022-12-07T16:22:40;-0.90;99.90
5675;DHT22;2860;54.284;10.158;2022-12-07T16:25:06;-0.90;99.90
5675;DHT22;2860;54.284;10.158;2022-12-07T16:27:32;-0.90;99.90
5675;DHT22;2860;54.284;10.158;2022-12-07T16:29:57;-1.00;99.90
5675;DHT22;2860;54.284;10.158;2022-12-07T16:32:23;-1.00;99.90
5675;DHT22;2860;54.284;10.158;2022-12-07T16:34:49;-1.00;99.90
5675;DHT22;2860;54.284;10.158;2022-12-07T16:37:14;-1.00;99.90
5675;DHT22;2860;54.284;10.158;2022-12-07T16:39:39;-1.00;99.90
5675;DHT22;2860;54.284;10.158;2022-12-07T16:42:05;-1.00;99.90
5675;DHT22;2860;54.284;10.158;2022-12-07T16:44:31;-1.10;99.90
5675;DHT22;2860;54.284;10.158;2022-12-07T16:46:57;-1.10;99.90
5675;DHT22;2860;54.284;10.158;2022-12-07T16:49:22;-1.10;99.90
5675;DHT22;2860;54.284;10.158;2022-12-07T16:51:50;-1.10;99.90
5675;DHT22;2860;54.284;10.158;2022-12-07T16:54:15;-1.20;99.90
5675;DHT22;2860;54.284;10.158;2022-12-07T16:56:41;-1.20;99.90
5675;DHT22;2860;54.284;10.158;2022-12-07T16:59:07;-1.20;99.90
5675;DHT22;2860;54.284;10.158;2022-12-07T17:01:32;-1.20;99.90
5675;DHT22;2860;54.284;10.158;2022-12-07T17:04:00;-1.30;99.90
5675;DHT22;2860;54.284;10.158;2022-12-07T17:06:27;-1.30;99.90
5675;DHT22;2860;54.284;10.158;2022-12-07T17:08:53;-1.40;99.90
5675;DHT22;2860;54.284;10.158;2022-12-07T17:11:26;-1.40;99.90
5675;DHT22;2860;54.284;10.158;2022-12-07T17:13:52;-1.50;99.90
5675;DHT22;2860;54.284;10.158;2022-12-07T17:16:36;-1.50;99.90
5675;DHT22;2860;54.284;10.158;2022-12-07T17:19:06;-1.50;99.90
5675;DHT22;2860;54.284;10.158;2022-12-07T17:21:33;-1.50;99.90
5675;DHT22;2860;54.284;10.158;2022-12-07T17:23:59;-1.50;99.90
5675;DHT22;2860;54.284;10.158;2022-12-07T17:26:26;-1.60;99.90
5675;DHT22;2860;54.284;10.158;2022-12-07T17:28:52;-1.50;99.90
5675;DHT22;2860;54.284;10.158;2022-12-07T17:31:20;-1.50;99.90
5675;DHT22;2860;54.284;10.158;2022-12-07T17:33:46;-1.50;99.90
5675;DHT22;2860;54.284;10.158;2022-12-07T17:36:23;-1.60;99.90
5675;DHT22;2860;54.284;10.158;2022-12-07T17:38:50;-1.60;99.90
5675;DHT22;2860;54.284;10.158;2022-12-07T17:44:21;-1.60;99.90
5675;DHT22;2860;54.284;10.158;2022-12-07T17:46:49;-1.50;99.90